sensor_id;sensor_type;location;lat;lon;timestamp;temperature;humidity
68648;SHT31;55632;51.962;16.116;2023-06-04T00:03:35;7.07;60.01
68648;SHT31;55632;51.962;16.116;2023-06-04T00:08:36;6.93;60.25
68648;SHT31;55632;51.962;16.116;2023-06-04T00:13:36;6.81;60.64
68648;SHT31;55632;51.962;16.116;2023-06-04T00:18:37;6.75;60.71
68648;SHT31;55632;51.962;16.116;2023-06-04T00:23:38;6.63;60.78
68648;SHT31;55632;51.962;16.116;2023-06-04T00:28:39;6.53;61.37
68648;SHT31;55632;51.962;16.116;2023-06-04T00:33:40;6.45;61.69
68648;SHT31;55632;51.962;16.116;2023-06-04T00:38:40;6.36;61.80
68648;SHT31;55632;51.962;16.116;2023-06-04T00:43:41;6.28;62.36
68648;SHT31;55632;51.962;16.116;2023-06-04T00:48:46;6.22;63.65
68648;SHT31;55632;51.962;16.116;2023-06-04T00:53:49;6.18;64.64
68648;SHT31;55632;51.962;16.116;2023-06-04T00:58:50;6.08;65.00
68648;SHT31;55632;51.962;16.116;2023-06-04T01:03:55;6.03;65.51
68648;SHT31;55632;51.962;16.116;2023-06-04T01:08:58;5.97;65.87
68648;SHT31;55632;51.962;16.116;2023-06-04T01:13:59;5.94;65.78
68648;SHT31;55632;51.962;16.116;2023-06-04T01:19:01;5.87;65.33
68648;SHT31;55632;51.962;16.116;2023-06-04T01:24:05;5.76;64.82
68648;SHT31;55632;51.962;16.116;2023-06-04T01:29:08;5.67;64.74
68648;SHT31;55632;51.962;16.116;2023-06-04T01:34:10;5.62;65.04
68648;SHT31;55632;51.962;16.116;2023-06-04T01:39:11;5.54;64.99
68648;SHT31;55632;51.962;16.116;2023-06-04T01:44:11;5.45;64.88
68648;SHT31;55632;51.962;16.116;2023-06-04T01:49:12;5.37;65.00
68648;SHT31;55632;51.962;16.116;2023-06-04T01:54:13;5.30;65.51
68648;SHT31;55632;51.962;16.116;2023-06-04T01:59:14;5.26;65.49
68648;SHT31;55632;51.962;16.116;2023-06-04T02:04:16;5.17;66.06
68648;SHT31;55632;51.962;16.116;2023-06-04T02:09:17;5.13;66.88
68648;SHT31;55632;51.962;16.116;2023-06-04T02:14:18;5.10;67.50
68648;SHT31;55632;51.962;16.116;2023-06-04T02:19:19;5.07;67.91
68648;SHT31;55632;51.962;16.116;2023-06-04T02:24:21;5.09;68.03
68648;SHT31;55632;51.962;16.116;2023-06-04T02:29:22;5.04;67.56
68648;SHT31;55632;51.962;16.116;2023-06-04T02:34:23;4.96;67.22
68648;SHT31;55632;51.962;16.116;2023-06-04T02:39:25;4.87;66.96
68648;SHT31;55632;51.962;16.116;2023-06-04T02:44:30;4.83;66.83
68648;SHT31;55632;51.962;16.116;2023-06-04T02:49:31;4.80;66.84
68648;SHT31;55632;51.962;16.116;2023-06-04T02:54:31;4.75;66.99
68648;SHT31;55632;51.962;16.116;2023-06-04T02:59:32;4.72;67.21
68648;SHT31;55632;51.962;16.116;2023-06-04T03:04:33;4.71;67.18
68648;SHT31;55632;51.962;16.116;2023-06-04T03:09:34;4.72;67.33
68648;SHT31;55632;51.962;16.116;2023-06-04T03:14:35;4.71;67.52
68648;SHT31;55632;51.962;16.116;2023-06-04T03:19:38;4.73;67.45
68648;SHT31;55632;51.962;16.116;2023-06-04T03:24:40;4.92;67.65
68648;SHT31;55632;51.962;16.116;2023-06-04T03:29:41;5.49;67.69
68648;SHT31;55632;51.962;16.116;2023-06-04T03:34:43;6.17;67.53
68648;SHT31;55632;51.962;16.116;2023-06-04T03:39:45;6.86;67.44
68648;SHT31;55632;51.962;16.116;2023-06-04T03:44:49;7.50;66.37
68648;SHT31;55632;51.962;16.116;2023-06-04T03:49:50;8.12;65.46
68648;SHT31;55632;51.962;16.116;2023-06-04T03:54:51;8.81;64.52
68648;SHT31;55632;51.962;16.116;2023-06-04T03:59:52;9.48;63.86
68648;SHT31;55632;51.962;16.116;2023-06-04T04:04:53;10.17;62.90
68648;SHT31;55632;51.962;16.116;2023-06-04T04:09:55;10.85;61.68
68648;SHT31;55632;51.962;16.116;2023-06-04T04:14:56;11.52;60.68
68648;SHT31;55632;51.962;16.116;2023-06-04T04:19:57;12.14;59.50
68648;SHT31;55632;51.962;16.116;2023-06-04T04:24:57;12.79;58.39
68648;SHT31;55632;51.962;16.116;2023-06-04T04:29:58;13.42;57.10
68648;SHT31;55632;51.962;16.116;2023-06-04T04:35:03;13.93;55.81
68648;SHT31;55632;51.962;16.116;2023-06-04T04:40:10;14.41;54.94
68648;SHT31;55632;51.962;16.116;2023-06-04T04:45:16;14.83;54.13
68648;SHT31;55632;51.962;16.116;2023-06-04T04:50:21;15.24;53.51
68648;SHT31;55632;51.962;16.116;2023-06-04T04:55:22;15.70;52.64
68648;SHT31;55632;51.962;16.116;2023-06-04T05:00:24;16.10;51.95
68648;SHT31;55632;51.962;16.116;2023-06-04T05:05:29;16.52;51.11
68648;SHT31;55632;51.962;16.116;2023-06-04T05:10:30;16.95;50.63
68648;SHT31;55632;51.962;16.116;2023-06-04T05:15:34;17.35;49.63
68648;SHT31;55632;51.962;16.116;2023-06-04T05:20:35;17.80;48.44
68648;SHT31;55632;51.962;16.116;2023-06-04T05:25:39;18.18;47.70
68648;SHT31;55632;51.962;16.116;2023-06-04T05:30:41;18.57;47.19
68648;SHT31;55632;51.962;16.116;2023-06-04T05:35:47;18.91;46.18
68648;SHT31;55632;51.962;16.116;2023-06-04T05:40:54;19.25;44.84
68648;SHT31;55632;51.962;16.116;2023-06-04T05:45:57;19.51;44.14
68648;SHT31;55632;51.962;16.116;2023-06-04T05:50:59;19.84;43.29
68648;SHT31;55632;51.962;16.116;2023-06-04T05:56:00;20.06;43.00
68648;SHT31;55632;51.962;16.116;2023-06-04T06:01:00;20.34;42.04
68648;SHT31;55632;51.962;16.116;2023-06-04T06:06:02;20.57;41.48
68648;SHT31;55632;51.962;16.116;2023-06-04T06:11:03;20.84;41.37
68648;SHT31;55632;51.962;16.116;2023-06-04T06:16:05;21.07;40.45
68648;SHT31;55632;51.962;16.116;2023-06-04T06:21:06;21.32;39.74
68648;SHT31;55632;51.962;16.116;2023-06-04T06:26:08;21.61;39.29
68648;SHT31;55632;51.962;16.116;2023-06-04T06:31:15;21.85;39.03
68648;SHT31;55632;51.962;16.116;2023-06-04T06:36:16;22.03;39.20
68648;SHT31;55632;51.962;16.116;2023-06-04T06:41:19;22.21;38.06
68648;SHT31;55632;51.962;16.116;2023-06-04T06:46:19;22.36;37.93
68648;SHT31;55632;51.962;16.116;2023-06-04T06:51:20;22.57;38.56
68648;SHT31;55632;51.962;16.116;2023-06-04T06:56:21;22.81;37.39
68648;SHT31;55632;51.962;16.116;2023-06-04T07:01:22;22.85;36.76
68648;SHT31;55632;51.962;16.116;2023-06-04T07:06:23;23.00;36.43
68648;SHT31;55632;51.962;16.116;2023-06-04T07:11:24;23.13;35.62
68648;SHT31;55632;51.962;16.116;2023-06-04T07:16:26;23.14;35.64
68648;SHT31;55632;51.962;16.116;2023-06-04T07:21:27;23.27;36.19
68648;SHT31;55632;51.962;16.116;2023-06-04T07:26:27;23.53;35.58
68648;SHT31;55632;51.962;16.116;2023-06-04T07:31:31;23.61;35.10
68648;SHT31;55632;51.962;16.116;2023-06-04T07:36:31;23.62;34.60
68648;SHT31;55632;51.962;16.116;2023-06-04T07:41:33;23.59;34.34
68648;SHT31;55632;51.962;16.116;2023-06-04T07:46:34;23.53;33.14
68648;SHT31;55632;51.962;16.116;2023-06-04T07:51:35;23.43;32.89
68648;SHT31;55632;51.962;16.116;2023-06-04T07:56:36;23.50;31.50
68648;SHT31;55632;51.962;16.116;2023-06-04T08:01:37;23.46;31.34
68648;SHT31;55632;51.962;16.116;2023-06-04T08:06:38;23.48;30.07
68648;SHT31;55632;51.962;16.116;2023-06-04T08:11:41;23.30;30.99
68648;SHT31;55632;51.962;16.116;2023-06-04T08:16:43;23.20;31.37
68648;SHT31;55632;51.962;16.116;2023-06-04T08:21:44;23.26;31.28
68648;SHT31;55632;51.962;16.116;2023-06-04T08:26:46;23.39;30.96
68648;SHT31;55632;51.962;16.116;2023-06-04T08:31:47;23.58;30.12
68648;SHT31;55632;51.962;16.116;2023-06-04T08:36:48;23.76;30.12
68648;SHT31;55632;51.962;16.116;2023-06-04T08:42:00;23.90;28.85
68648;SHT31;55632;51.962;16.116;2023-06-04T08:47:05;23.81;27.73
68648;SHT31;55632;51.962;16.116;2023-06-04T08:52:06;23.89;28.72
68648;SHT31;55632;51.962;16.116;2023-06-04T08:57:08;24.08;28.41
68648;SHT31;55632;51.962;16.116;2023-06-04T09:02:10;24.27;29.19
68648;SHT31;55632;51.962;16.116;2023-06-04T09:07:13;24.24;27.96
68648;SHT31;55632;51.962;16.116;2023-06-04T09:12:22;24.23;27.92
68648;SHT31;55632;51.962;16.116;2023-06-04T09:17:24;24.31;28.09
68648;SHT31;55632;51.962;16.116;2023-06-04T09:22:32;24.37;28.67
68648;SHT31;55632;51.962;16.116;2023-06-04T09:27:40;24.53;28.62
68648;SHT31;55632;51.962;16.116;2023-06-04T09:32:41;24.61;28.90
68648;SHT31;55632;51.962;16.116;2023-06-04T09:37:43;24.68;27.84
68648;SHT31;55632;51.962;16.116;2023-06-04T09:42:51;24.65;27.69
68648;SHT31;55632;51.962;16.116;2023-06-04T09:47:56;24.64;27.30
68648;SHT31;55632;51.962;16.116;2023-06-04T09:53:00;24.57;27.06
68648;SHT31;55632;51.962;16.116;2023-06-04T09:58:03;24.69;27.96
68648;SHT31;55632;51.962;16.116;2023-06-04T10:03:06;24.86;27.84
68648;SHT31;55632;51.962;16.116;2023-06-04T10:08:11;24.89;27.13
68648;SHT31;55632;51.962;16.116;2023-06-04T10:13:18;24.72;27.19
68648;SHT31;55632;51.962;16.116;2023-06-04T10:18:19;24.65;27.20
68648;SHT31;55632;51.962;16.116;2023-06-04T10:23:21;24.65;26.57
68648;SHT31;55632;51.962;16.116;2023-06-04T10:28:23;24.73;26.71
68648;SHT31;55632;51.962;16.116;2023-06-04T10:33:24;24.83;27.24
68648;SHT31;55632;51.962;16.116;2023-06-04T10:38:25;24.83;26.36
68648;SHT31;55632;51.962;16.116;2023-06-04T10:43:29;24.50;25.87
68648;SHT31;55632;51.962;16.116;2023-06-04T10:48:31;24.41;26.23
68648;SHT31;55632;51.962;16.116;2023-06-04T10:53:36;24.43;26.48
68648;SHT31;55632;51.962;16.116;2023-06-04T10:58:37;24.40;26.42
68648;SHT31;55632;51.962;16.116;2023-06-04T11:03:38;24.45;26.23
68648;SHT31;55632;51.962;16.116;2023-06-04T11:08:39;24.33;26.57
68648;SHT31;55632;51.962;16.116;2023-06-04T11:13:44;24.37;26.62
68648;SHT31;55632;51.962;16.116;2023-06-04T11:18:57;24.40;26.06
68648;SHT31;55632;51.962;16.116;2023-06-04T11:23:59;24.48;26.56
68648;SHT31;55632;51.962;16.116;2023-06-04T11:29:01;24.73;27.81
68648;SHT31;55632;51.962;16.116;2023-06-04T11:34:02;24.93;27.02
68648;SHT31;55632;51.962;16.116;2023-06-04T11:39:03;24.80;26.27
68648;SHT31;55632;51.962;16.116;2023-06-04T11:44:06;24.73;26.31
68648;SHT31;55632;51.962;16.116;2023-06-04T11:49:07;24.90;26.19
68648;SHT31;55632;51.962;16.116;2023-06-04T11:54:08;24.99;26.30
68648;SHT31;55632;51.962;16.116;2023-06-04T11:59:09;25.19;26.40
68648;SHT31;55632;51.962;16.116;2023-06-04T12:04:17;25.31;26.75
68648;SHT31;55632;51.962;16.116;2023-06-04T12:09:29;25.44;26.06
68648;SHT31;55632;51.962;16.116;2023-06-04T12:14:32;25.49;26.52
68648;SHT31;55632;51.962;16.116;2023-06-04T12:19:33;25.57;27.16
68648;SHT31;55632;51.962;16.116;2023-06-04T12:24:52;25.61;26.06
68648;SHT31;55632;51.962;16.116;2023-06-04T12:29:58;25.57;25.50
68648;SHT31;55632;51.962;16.116;2023-06-04T12:34:59;25.61;26.43
68648;SHT31;55632;51.962;16.116;2023-06-04T12:39:59;25.72;26.27
68648;SHT31;55632;51.962;16.116;2023-06-04T12:45:00;25.75;25.05
68648;SHT31;55632;51.962;16.116;2023-06-04T12:50:01;25.55;24.72
68648;SHT31;55632;51.962;16.116;2023-06-04T12:55:03;25.49;25.68
68648;SHT31;55632;51.962;16.116;2023-06-04T13:00:05;25.54;25.68
68648;SHT31;55632;51.962;16.116;2023-06-04T13:05:07;25.57;24.96
68648;SHT31;55632;51.962;16.116;2023-06-04T13:10:08;25.64;25.65
68648;SHT31;55632;51.962;16.116;2023-06-04T13:15:10;25.72;25.19
68648;SHT31;55632;51.962;16.116;2023-06-04T13:20:12;25.78;24.49
68648;SHT31;55632;51.962;16.116;2023-06-04T13:25:13;25.74;24.47
68648;SHT31;55632;51.962;16.116;2023-06-04T13:30:14;25.71;24.60
68648;SHT31;55632;51.962;16.116;2023-06-04T13:35:15;25.75;24.92
68648;SHT31;55632;51.962;16.116;2023-06-04T13:40:16;25.82;25.27
68648;SHT31;55632;51.962;16.116;2023-06-04T13:45:17;25.83;24.58
68648;SHT31;55632;51.962;16.116;2023-06-04T13:50:20;25.74;24.35
68648;SHT31;55632;51.962;16.116;2023-06-04T13:55:22;25.65;24.33
68648;SHT31;55632;51.962;16.116;2023-06-04T14:00:23;25.61;24.58
68648;SHT31;55632;51.962;16.116;2023-06-04T14:05:25;25.57;24.31
68648;SHT31;55632;51.962;16.116;2023-06-04T14:10:27;25.49;24.37
68648;SHT31;55632;51.962;16.116;2023-06-04T14:15:28;25.51;24.92
68648;SHT31;55632;51.962;16.116;2023-06-04T14:20:30;25.55;24.96
68648;SHT31;55632;51.962;16.116;2023-06-04T14:25:30;25.47;24.79
68648;SHT31;55632;51.962;16.116;2023-06-04T14:30:35;25.34;24.54
68648;SHT31;55632;51.962;16.116;2023-06-04T14:35:38;25.31;24.83
68648;SHT31;55632;51.962;16.116;2023-06-04T14:40:44;25.31;25.39
68648;SHT31;55632;51.962;16.116;2023-06-04T14:45:45;25.23;25.65
68648;SHT31;55632;51.962;16.116;2023-06-04T14:50:46;25.13;25.39
68648;SHT31;55632;51.962;16.116;2023-06-04T14:55:47;25.12;25.79
68648;SHT31;55632;51.962;16.116;2023-06-04T15:00:48;25.12;25.73
68648;SHT31;55632;51.962;16.116;2023-06-04T15:05:49;25.06;25.57
68648;SHT31;55632;51.962;16.116;2023-06-04T15:10:50;25.02;25.53
68648;SHT31;55632;51.962;16.116;2023-06-04T15:15:51;24.99;26.30
68648;SHT31;55632;51.962;16.116;2023-06-04T15:20:52;25.14;26.65
68648;SHT31;55632;51.962;16.116;2023-06-04T15:25:53;25.13;25.69
68648;SHT31;55632;51.962;16.116;2023-06-04T15:30:54;25.12;25.73
68648;SHT31;55632;51.962;16.116;2023-06-04T15:35:55;25.02;25.43
68648;SHT31;55632;51.962;16.116;2023-06-04T15:40:56;24.80;25.52
68648;SHT31;55632;51.962;16.116;2023-06-04T15:45:56;24.71;25.55
68648;SHT31;55632;51.962;16.116;2023-06-04T15:50:57;24.69;26.10
68648;SHT31;55632;51.962;16.116;2023-06-04T15:55:58;24.73;26.20
68648;SHT31;55632;51.962;16.116;2023-06-04T16:00:59;24.67;25.98
68648;SHT31;55632;51.962;16.116;2023-06-04T16:06:00;24.62;26.18
68648;SHT31;55632;51.962;16.116;2023-06-04T16:11:01;24.53;25.86
68648;SHT31;55632;51.962;16.116;2023-06-04T16:16:02;24.40;26.11
68648;SHT31;55632;51.962;16.116;2023-06-04T16:21:02;24.31;26.28
68648;SHT31;55632;51.962;16.116;2023-06-04T16:26:03;24.31;26.12
68648;SHT31;55632;51.962;16.116;2023-06-04T16:31:04;24.28;26.06
68648;SHT31;55632;51.962;16.116;2023-06-04T16:36:05;24.26;26.01
68648;SHT31;55632;51.962;16.116;2023-06-04T16:41:06;24.23;26.21
68648;SHT31;55632;51.962;16.116;2023-06-04T16:46:07;24.13;26.60
68648;SHT31;55632;51.962;16.116;2023-06-04T16:51:07;23.95;26.64
68648;SHT31;55632;51.962;16.116;2023-06-04T16:56:08;23.82;27.18
68648;SHT31;55632;51.962;16.116;2023-06-04T17:01:10;23.72;27.44
68648;SHT31;55632;51.962;16.116;2023-06-04T17:06:13;23.55;27.44
68648;SHT31;55632;51.962;16.116;2023-06-04T17:11:17;23.40;27.98
68648;SHT31;55632;51.962;16.116;2023-06-04T17:16:18;23.22;28.24
68648;SHT31;55632;51.962;16.116;2023-06-04T17:21:19;23.10;28.19
68648;SHT31;55632;51.962;16.116;2023-06-04T17:26:21;22.95;28.21
68648;SHT31;55632;51.962;16.116;2023-06-04T17:31:23;22.82;28.59
68648;SHT31;55632;51.962;16.116;2023-06-04T17:36:24;22.67;28.64
68648;SHT31;55632;51.962;16.116;2023-06-04T17:41:25;22.57;28.78
68648;SHT31;55632;51.962;16.116;2023-06-04T17:46:27;22.44;29.17
68648;SHT31;55632;51.962;16.116;2023-06-04T17:51:28;22.29;29.74
68648;SHT31;55632;51.962;16.116;2023-06-04T17:56:31;22.14;30.19
68648;SHT31;55632;51.962;16.116;2023-06-04T18:01:33;22.02;30.55
68648;SHT31;55632;51.962;16.116;2023-06-04T18:06:33;21.91;30.95
68648;SHT31;55632;51.962;16.116;2023-06-04T18:11:35;21.73;31.44
68648;SHT31;55632;51.962;16.116;2023-06-04T18:16:37;21.57;31.63
68648;SHT31;55632;51.962;16.116;2023-06-04T18:21:38;21.46;31.97
68648;SHT31;55632;51.962;16.116;2023-06-04T18:26:38;21.26;32.36
68648;SHT31;55632;51.962;16.116;2023-06-04T18:31:39;21.09;32.90
68648;SHT31;55632;51.962;16.116;2023-06-04T18:36:40;20.92;33.54
68648;SHT31;55632;51.962;16.116;2023-06-04T18:41:42;20.72;33.77
68648;SHT31;55632;51.962;16.116;2023-06-04T18:46:44;20.47;34.07
68648;SHT31;55632;51.962;16.116;2023-06-04T18:51:51;20.29;34.18
68648;SHT31;55632;51.962;16.116;2023-06-04T18:56:53;20.06;34.79
68648;SHT31;55632;51.962;16.116;2023-06-04T19:01:55;19.82;35.72
68648;SHT31;55632;51.962;16.116;2023-06-04T19:06:59;19.53;36.22
68648;SHT31;55632;51.962;16.116;2023-06-04T19:12:00;19.20;36.51
68648;SHT31;55632;51.962;16.116;2023-06-04T19:17:01;18.99;36.93
68648;SHT31;55632;51.962;16.116;2023-06-04T19:22:07;18.78;37.67
68648;SHT31;55632;51.962;16.116;2023-06-04T19:27:08;18.52;38.68
68648;SHT31;55632;51.962;16.116;2023-06-04T19:32:10;18.12;39.81
68648;SHT31;55632;51.962;16.116;2023-06-04T19:37:11;17.78;40.63
68648;SHT31;55632;51.962;16.116;2023-06-04T19:42:11;17.53;41.18
68648;SHT31;55632;51.962;16.116;2023-06-04T19:47:12;17.31;41.71
68648;SHT31;55632;51.962;16.116;2023-06-04T19:52:13;17.07;42.83
68648;SHT31;55632;51.962;16.116;2023-06-04T19:57:14;16.85;43.73
68648;SHT31;55632;51.962;16.116;2023-06-04T20:02:18;16.59;44.11
68648;SHT31;55632;51.962;16.116;2023-06-04T20:07:19;16.33;44.56
68648;SHT31;55632;51.962;16.116;2023-06-04T20:12:25;16.08;45.19
68648;SHT31;55632;51.962;16.116;2023-06-04T20:17:26;15.79;45.30
68648;SHT31;55632;51.962;16.116;2023-06-04T20:22:26;15.59;45.56
68648;SHT31;55632;51.962;16.116;2023-06-04T20:27:28;15.38;46.01
68648;SHT31;55632;51.962;16.116;2023-06-04T20:32:31;15.17;46.50
68648;SHT31;55632;51.962;16.116;2023-06-04T20:37:34;14.96;47.17
68648;SHT31;55632;51.962;16.116;2023-06-04T20:42:39;14.76;47.55
68648;SHT31;55632;51.962;16.116;2023-06-04T20:47:40;14.58;47.99
68648;SHT31;55632;51.962;16.116;2023-06-04T20:52:41;14.32;48.42
68648;SHT31;55632;51.962;16.116;2023-06-04T20:57:42;14.14;49.14
68648;SHT31;55632;51.962;16.116;2023-06-04T21:02:46;13.93;49.81
68648;SHT31;55632;51.962;16.116;2023-06-04T21:07:47;13.70;50.17
68648;SHT31;55632;51.962;16.116;2023-06-04T21:12:48;13.54;50.78
68648;SHT31;55632;51.962;16.116;2023-06-04T21:17:51;13.32;51.38
68648;SHT31;55632;51.962;16.116;2023-06-04T21:22:52;13.13;51.60
68648;SHT31;55632;51.962;16.116;2023-06-04T21:27:53;12.93;51.78
68648;SHT31;55632;51.962;16.116;2023-06-04T21:32:54;12.79;51.95
68648;SHT31;55632;51.962;16.116;2023-06-04T21:37:55;12.62;52.43
68648;SHT31;55632;51.962;16.116;2023-06-04T21:42:59;12.49;52.65
68648;SHT31;55632;51.962;16.116;2023-06-04T21:47:59;12.30;52.77
68648;SHT31;55632;51.962;16.116;2023-06-04T21:53:00;12.14;53.19
68648;SHT31;55632;51.962;16.116;2023-06-04T21:58:01;11.97;53.67
68648;SHT31;55632;51.962;16.116;2023-06-04T22:03:07;11.85;54.02
68648;SHT31;55632;51.962;16.116;2023-06-04T22:08:07;11.72;54.38
68648;SHT31;55632;51.962;16.116;2023-06-04T22:13:08;11.55;54.93
68648;SHT31;55632;51.962;16.116;2023-06-04T22:18:12;11.38;55.17
68648;SHT31;55632;51.962;16.116;2023-06-04T22:23:13;11.26;55.59
68648;SHT31;55632;51.962;16.116;2023-06-04T22:28:17;11.13;55.82
68648;SHT31;55632;51.962;16.116;2023-06-04T22:33:21;10.97;56.16
68648;SHT31;55632;51.962;16.116;2023-06-04T22:38:22;10.85;56.33
68648;SHT31;55632;51.962;16.116;2023-06-04T22:43:26;10.69;56.60
68648;SHT31;55632;51.962;16.116;2023-06-04T22:48:37;10.55;57.21
68648;SHT31;55632;51.962;16.116;2023-06-04T22:53:43;10.37;57.64
68648;SHT31;55632;51.962;16.116;2023-06-04T22:58:46;10.27;57.99
68648;SHT31;55632;51.962;16.116;2023-06-04T23:03:50;10.14;58.24
68648;SHT31;55632;51.962;16.116;2023-06-04T23:08:56;10.08;58.40
68648;SHT31;55632;51.962;16.116;2023-06-04T23:13:57;9.99;58.72
68648;SHT31;55632;51.962;16.116;2023-06-04T23:19:01;9.89;59.00
68648;SHT31;55632;51.962;16.116;2023-06-04T23:24:04;9.75;59.01
68648;SHT31;55632;51.962;16.116;2023-06-04T23:29:05;9.64;59.30
68648;SHT31;55632;51.962;16.116;2023-06-04T23:34:09;9.55;59.64
68648;SHT31;55632;51.962;16.116;2023-06-04T23:39:10;9.51;59.93
68648;SHT31;55632;51.962;16.116;2023-06-04T23:44:14;9.43;60.65
68648;SHT31;55632;51.962;16.116;2023-06-04T23:49:17;9.33;61.22
68648;SHT31;55632;51.962;16.116;2023-06-04T23:54:17;9.26;61.48
68648;SHT31;55632;51.962;16.116;2023-06-04T23:59:18;9.16;61.51
